Архив погоды в Красной Поляне

Метеограмма Красная Поляна
Пятница, 19 Октября
Время местн. Темп Ветер Видим Явления Облачность нижн/средн/верх Атм. давл. Влжн Точка росы ВНГО R Сост. почвы Tg s
Напр Скр Прв ур.ст ур.м изм
15:00 +23.3° З 1 - 20 км - ясно 714 761 -0.9 46% +11° более 2.5 км - - - -
12:00 +20.3° Ю,Ю-З 1 - 20 км - ясно 715 763 -0.9 40% +6.3° более 2.5 км - - - -
09:00 +13.6° Ю-В 1 - 20 км - ясно 715 765 +0.1 57% +5.2° более 2.5 км - - - -
06:00 +7.3° штиль 0 - 20 км - ясно 715 766 0 86% +5.1° более 2.5 км 0 Сырая (есть малые или большие лужи) +3° -
03:00 +8.9° С-В 1 - 20 км - ясно 715 766 +0.1 79% +5.5° более 2.5 км - - - -
00:00 +9.6° штиль 0 - 20 км - ясно 715 765 +0.6 79% +6.1° более 2.5 км - - - -
Четверг, 18 Октября
Время местн. Темп Ветер Видим Явления Облачность нижн/средн/верх Атм. давл. Влжн Точка росы ВНГО R Сост. почвы Tg s
Напр Скр Прв ур.ст ур.м изм
21:00 +12.9° В,С-В 1 - 20 км - ясно 715 764 +0.5 77% +9° более 2.5 км - - - -
18:00 +16.2° С,С-В 2 - 16 км - ясно 714 763 +0.3 76% +12° более 2.5 км - - - -
15:00 +23° Ю-З 2 - 20 км - ясно 714 762 -1.1 52% +12.6° более 2.5 км - - - -
12:00 +20.1° Ю-З 2 - 20 км - ясно 715 763 -0.8 46% +8.1° более 2.5 км - - - -
09:00 +13° Ю-В 1 - 20 км - ясно 716 765 +0.2 60% +5.4° более 2.5 км - - - -
06:00 +7.9° штиль 0 - 20 км - ясно 716 766 -0.2 92% +6.7° более 2.5 км - Влажная (без луж) - -
03:00 +9.2° штиль 0 - 19 км - ясно 716 766 -0.5 91% +7.8° более 2.5 км - - - -
00:00 +10.8° штиль 0 - 20 км - незначительная облачность 716 766 +0.7 88% +8.9° более 2.5 км - - - -
Среда, 17 Октября
Время местн. Темп Ветер Видим Явления Облачность нижн/средн/верх Атм. давл. Влжн Точка росы ВНГО R Сост. почвы Tg s
Напр Скр Прв ур.ст ур.м изм
21:00 +13.7° В 1 - 20 км - ясно 716 765 +0.5 78% +9.9° более 2.5 км - - - -
18:00 +16.8° С,С-В 2 - 16 км - ясно 715 764 -0.2 74% +12.1° более 2.5 км - - - -
15:00 +23.3° Ю-З 2 - 20 км - ясно 715 763 -1 53% +13.2° более 2.5 км - - - -
12:00 +21.6° Ю,Ю-З 1 - 20 км - ясно 716 764 -0.9 44% +8.8° более 2.5 км - - - -
09:00 +13.9° Ю-В 1 - 20 км - ясно 717 767 -0.1 69% +8.3° более 2.5 км - - - -
06:00 +8.7° штиль 0 - 20 км - ясно 717 768 -0.4 95% +7.9° более 2.5 км - Влажная (без луж) - -
03:00 +10° штиль 0 - 20 км - ясно 718 768 0 90% +8.4° более 2.5 км - - - -
00:00 +11.6° В 1 - 20 км - ясно 718 767 +0.2 90% +10° более 2.5 км - - - -
Вторник, 16 Октября
Время местн. Темп Ветер Видим Явления Облачность нижн/средн/верх Атм. давл. Влжн Точка росы ВНГО R Сост. почвы Tg s
Напр Скр Прв ур.ст ур.м изм
21:00 +13.4° С 1 - 20 км - ясно 717 767 +0.8 83% +10.6° более 2.5 км - - - -
18:00 +17.3° С 1 - 20 км - ясно 717 765 -0.2 75% +12.8° более 2.5 км - - - -
15:00 +23.8° Ю-З 1 - 19 км - ясно 717 765 -0.8 43% +10.5° более 2.5 км - - - -
12:00 +20.7° Ю 1 - 20 км - ясно 718 766 -0.8 56% +11.6° более 2.5 км - - - -